createdAt,value
2018-06-03T00:02:08.095Z,101464.02
2018-06-03T00:04:34.004Z,101461.59
2018-06-03T00:06:59.756Z,101458.78
2018-06-03T00:09:25.554Z,101457.34
2018-06-03T00:11:51.325Z,101450.39
2018-06-03T00:14:17.123Z,101456.12
2018-06-03T00:16:42.931Z,101467.81
2018-06-03T00:19:08.700Z,101469.42
2018-06-03T00:21:41.623Z,101466.61
2018-06-03T00:24:07.400Z,101468.85
2018-06-03T00:26:33.160Z,101467.28
2018-06-03T00:28:58.964Z,101471.94
2018-06-03T00:31:24.715Z,101475.92
2018-06-03T00:33:50.493Z,101477.67
2018-06-03T00:36:28.559Z,101482.62
2018-06-03T00:38:54.331Z,101489.19
2018-06-03T00:41:20.086Z,101481.45
2018-06-03T00:43:45.899Z,101490.53
2018-06-03T00:46:11.980Z,101490.68
2018-06-03T00:48:37.804Z,101498.40
2018-06-03T00:51:03.685Z,101495.91
2018-06-03T00:53:29.444Z,101495.99
2018-06-03T00:55:55.475Z,101495.39
2018-06-03T00:58:21.227Z,101492.68
2018-06-03T01:00:47.032Z,101494.66
2018-06-03T01:03:12.796Z,101494.41
2018-06-03T01:05:38.585Z,101490.91
2018-06-03T01:08:04.344Z,101497.48
2018-06-03T01:10:30.115Z,101497.83
2018-06-03T01:12:55.879Z,101488.09
2018-06-03T01:15:21.810Z,101493.41
2018-06-03T01:17:47.597Z,101488.02
2018-06-03T01:20:13.381Z,101491.26
2018-06-03T01:22:39.122Z,101492.24
2018-06-03T01:25:04.915Z,101491.26
2018-06-03T01:27:30.672Z,101490.77
2018-06-03T01:29:56.435Z,101491.98
2018-06-03T01:32:22.236Z,101490.34
2018-06-03T01:34:48.043Z,101489.33
2018-06-03T01:37:13.845Z,101481.72
2018-06-03T01:39:39.610Z,101487.77
2018-06-03T01:42:05.380Z,101489.52
2018-06-03T01:44:31.144Z,101485.45
2018-06-03T01:46:56.920Z,101490.23
2018-06-03T01:49:22.705Z,101484.13
2018-06-03T01:51:48.463Z,101487.27
2018-06-03T01:54:14.212Z,101480.63
2018-06-03T01:56:39.982Z,101477.55
2018-06-03T01:59:05.726Z,101487.34
2018-06-03T02:01:31.500Z,101479.56
2018-06-03T02:03:57.250Z,101477.05
2018-06-03T02:06:23.028Z,101475.65
2018-06-03T02:08:48.772Z,101476.32
2018-06-03T02:11:14.535Z,101475.30
2018-06-03T02:13:40.317Z,101472.33
2018-06-03T02:16:06.152Z,101471.50
2018-06-03T02:18:32.071Z,101471.99
2018-06-03T02:20:57.855Z,101465.84
2018-06-03T02:23:23.627Z,101470.01
2018-06-03T02:25:49.417Z,101470.34
2018-06-03T02:28:15.203Z,101474.16
2018-06-03T02:30:41.024Z,101476.41
2018-06-03T02:33:06.895Z,101470.78
2018-06-03T02:35:32.640Z,101473.09
2018-06-03T02:37:58.495Z,101471.03
2018-06-03T02:40:24.381Z,101471.84
2018-06-03T02:42:50.179Z,101471.34
2018-06-03T02:45:15.938Z,101471.27
2018-06-03T02:47:41.734Z,101468.95
2018-06-03T02:50:07.513Z,101472.00
2018-06-03T02:52:33.311Z,101471.51
2018-06-03T02:54:59.113Z,101464.79
2018-06-03T02:57:24.848Z,101467.21
2018-06-03T02:59:50.892Z,101464.97
2018-06-03T03:02:17.297Z,101469.45
2018-06-03T03:04:43.063Z,101472.00
2018-06-03T03:07:08.854Z,101473.44
2018-06-03T03:09:34.619Z,101474.77
2018-06-03T03:12:00.375Z,101474.34
2018-06-03T03:14:26.124Z,101475.18
2018-06-03T03:16:51.921Z,101476.33
2018-06-03T03:19:17.683Z,101484.64
2018-06-03T03:21:43.750Z,101478.42
2018-06-03T03:24:09.512Z,101478.66
2018-06-03T03:26:35.403Z,101480.81
2018-06-03T03:29:01.207Z,101468.45
2018-06-03T03:31:27.211Z,101478.89
2018-06-03T03:33:52.968Z,101485.11
2018-06-03T03:36:18.736Z,101485.53
2018-06-03T03:38:44.532Z,101477.07
2018-06-03T03:41:10.299Z,101475.32
2018-06-03T03:43:36.103Z,101475.25
2018-06-03T03:46:01.860Z,101476.47
2018-06-03T03:48:27.655Z,101481.63
2018-06-03T03:50:53.458Z,101480.62
2018-06-03T03:53:19.227Z,101481.03
2018-06-03T03:55:44.996Z,101476.06
2018-06-03T03:58:10.767Z,101481.37
2018-06-03T04:00:36.514Z,101478.80
2018-06-03T04:03:02.274Z,101481.80
2018-06-03T04:05:28.028Z,101488.86
2018-06-03T04:07:53.798Z,101485.19
2018-06-03T04:10:19.559Z,101486.36
2018-06-03T04:12:45.339Z,101488.60
2018-06-03T04:15:11.116Z,101487.58
2018-06-03T04:17:36.878Z,101478.88
2018-06-03T04:20:02.636Z,101487.27
2018-06-03T04:22:28.439Z,101484.61
2018-06-03T04:24:54.176Z,101483.70
2018-06-03T04:27:19.935Z,101485.87
2018-06-03T04:29:45.804Z,101492.52
2018-06-03T04:32:11.755Z,101489.33
2018-06-03T04:34:37.499Z,101491.42
2018-06-03T04:37:03.279Z,101490.02
2018-06-03T04:39:29.091Z,101490.81
2018-06-03T04:41:54.852Z,101492.07
2018-06-03T04:44:20.607Z,101495.90
2018-06-03T04:46:46.402Z,101496.97
2018-06-03T04:49:12.145Z,101498.22
2018-06-03T04:51:38.182Z,101498.95
2018-06-03T04:54:03.959Z,101499.61
2018-06-03T04:56:29.707Z,101499.04
2018-06-03T04:58:55.487Z,101501.63
2018-06-03T05:01:21.234Z,101499.62
2018-06-03T05:03:47.008Z,101499.27
2018-06-03T05:06:12.747Z,101497.42
2018-06-03T05:08:38.507Z,101495.39
2018-06-03T05:11:04.268Z,101502.86
2018-06-03T05:13:30.059Z,101499.00
2018-06-03T05:15:55.822Z,101498.33
2018-06-03T05:18:21.608Z,101496.81
2018-06-03T05:20:47.347Z,101494.39
2018-06-03T05:23:13.156Z,101495.36
2018-06-03T05:25:38.942Z,101497.15
2018-06-03T05:28:04.754Z,101499.50
2018-06-03T05:30:30.508Z,101489.59
2018-06-03T05:32:56.292Z,101490.20
2018-06-03T05:35:22.035Z,101495.77
2018-06-03T05:37:47.815Z,101499.16
2018-06-03T05:40:13.574Z,101498.27
2018-06-03T05:42:39.342Z,101506.66
2018-06-03T05:45:05.279Z,101502.75
2018-06-03T05:47:31.168Z,101501.09
2018-06-03T05:49:57.004Z,101499.39
2018-06-03T05:52:23.005Z,101497.31
2018-06-03T05:54:48.755Z,101508.49
2018-06-03T05:57:14.523Z,101501.80
2018-06-03T05:59:40.380Z,101510.94
2018-06-03T06:02:06.135Z,101507.94
2018-06-03T06:04:31.915Z,101498.20
2018-06-03T06:06:57.712Z,101500.63
2018-06-03T06:09:23.462Z,101498.46
2018-06-03T06:11:49.216Z,101497.75
2018-06-03T06:14:14.999Z,101492.92
2018-06-03T06:16:40.752Z,101491.12
2018-06-03T06:19:06.498Z,101488.48
2018-06-03T06:21:32.314Z,101498.91
2018-06-03T06:23:58.168Z,101503.69
2018-06-03T06:26:23.914Z,101506.48
2018-06-03T06:28:49.688Z,101508.97
2018-06-03T06:31:15.427Z,101508.20
2018-06-03T06:33:41.190Z,101513.28
2018-06-03T06:36:06.940Z,101515.17
2018-06-03T06:38:32.707Z,101514.14
2018-06-03T06:40:58.459Z,101511.37
2018-06-03T06:43:24.339Z,101507.56
2018-06-03T06:45:50.099Z,101519.84
2018-06-03T06:48:15.840Z,101512.89
2018-06-03T06:50:41.620Z,101516.77
2018-06-03T06:53:07.411Z,101521.30
2018-06-03T06:55:33.184Z,101520.94
2018-06-03T06:57:58.946Z,101512.55
2018-06-03T07:00:24.708Z,101514.17
2018-06-03T07:02:50.456Z,101518.14
2018-06-03T07:05:16.240Z,101522.69
2018-06-03T07:07:49.052Z,101527.77
2018-06-03T07:10:14.824Z,101528.17
2018-06-03T07:12:40.572Z,101538.95
2018-06-03T07:15:06.351Z,101537.66
2018-06-03T07:17:32.116Z,101535.08
2018-06-03T07:19:57.883Z,101534.00
2018-06-03T07:22:23.627Z,101535.51
2018-06-03T07:24:49.400Z,101540.28
2018-06-03T07:27:15.157Z,101536.76
2018-06-03T07:29:40.930Z,101534.61
2018-06-03T07:32:06.741Z,101535.24
2018-06-03T07:34:32.517Z,101539.91
2018-06-03T07:36:58.295Z,101527.94
2018-06-03T07:39:24.127Z,101531.97
2018-06-03T07:41:49.876Z,101528.13
2018-06-03T07:44:15.643Z,101532.31
2018-06-03T07:46:41.473Z,101538.25
2018-06-03T07:49:07.256Z,101537.10
2018-06-03T07:51:33.079Z,101540.95
2018-06-03T07:53:58.846Z,101539.70
2018-06-03T07:56:25.633Z,101540.77
2018-06-03T07:58:51.698Z,101544.09
2018-06-03T08:01:17.447Z,101538.33
2018-06-03T08:03:43.227Z,101546.61
2018-06-03T08:06:08.971Z,101544.35
2018-06-03T08:08:34.731Z,101546.85
2018-06-03T08:11:00.481Z,101551.34
2018-06-03T08:13:26.231Z,101552.08
2018-06-03T08:15:52.131Z,101551.77
2018-06-03T08:18:17.901Z,101558.17
2018-06-03T08:20:43.689Z,101546.39
2018-06-03T08:23:09.431Z,101550.23
2018-06-03T08:25:35.208Z,101545.22
2018-06-03T08:28:00.975Z,101550.87
2018-06-03T08:30:26.723Z,101549.58
2018-06-03T08:32:52.491Z,101547.82
2018-06-03T08:35:18.257Z,101545.47
2018-06-03T08:37:44.021Z,101542.57
2018-06-03T08:40:09.771Z,101554.91
2018-06-03T08:42:35.543Z,101553.27
2018-06-03T08:45:01.332Z,101554.91
2018-06-03T08:47:27.100Z,101555.91
2018-06-03T08:49:52.868Z,101564.68
2018-06-03T08:52:18.884Z,101559.34
2018-06-03T08:54:44.639Z,101562.21
2018-06-03T08:57:10.390Z,101556.17
2018-06-03T08:59:36.308Z,101564.19
2018-06-03T09:02:02.071Z,101561.03
2018-06-03T09:04:27.872Z,101563.33
2018-06-03T09:06:53.672Z,101566.96
2018-06-03T09:09:19.451Z,101563.07
2018-06-03T09:11:45.192Z,101563.34
2018-06-03T09:14:10.997Z,101569.73
2018-06-03T09:16:36.761Z,101562.69
2018-06-03T09:19:02.511Z,101564.41
2018-06-03T09:21:28.277Z,101562.39
2018-06-03T09:23:54.023Z,101561.32
2018-06-03T09:26:19.779Z,101561.48
2018-06-03T09:28:45.520Z,101560.23
2018-06-03T09:31:11.280Z,101566.73
2018-06-03T09:33:37.452Z,101563.94
2018-06-03T09:36:03.224Z,101562.16
2018-06-03T09:38:29.146Z,101557.47
2018-06-03T09:40:54.930Z,101553.96
2018-06-03T09:43:20.678Z,101557.28
2018-06-03T09:45:46.455Z,101552.16
2018-06-03T09:48:12.203Z,101552.47
2018-06-03T09:50:37.969Z,101551.39
2018-06-03T09:53:03.876Z,101553.45
2018-06-03T09:55:29.683Z,101558.23
2018-06-03T09:57:55.435Z,101558.26
2018-06-03T10:00:21.258Z,101565.09
2018-06-03T10:02:46.967Z,101559.25
2018-06-03T10:05:12.745Z,101566.45
2018-06-03T10:07:38.499Z,101565.27
2018-06-03T10:10:04.277Z,101566.31
2018-06-03T10:12:30.117Z,101570.72
2018-06-03T10:14:55.900Z,101566.73
2018-06-03T10:17:21.656Z,101566.36
2018-06-03T10:19:50.333Z,101566.45
2018-06-03T10:22:16.128Z,101564.12
2018-06-03T10:24:41.899Z,101557.43
2018-06-03T10:27:07.651Z,101567.36
2018-06-03T10:29:33.407Z,101568.48
2018-06-03T10:31:59.166Z,101569.75
2018-06-03T10:34:24.915Z,101575.54
2018-06-03T10:36:50.675Z,101567.76
2018-06-03T10:39:16.495Z,101570.46
2018-06-03T10:41:42.263Z,101575.07
2018-06-03T10:44:08.127Z,101567.25
2018-06-03T10:46:33.895Z,101568.02
2018-06-03T10:48:59.653Z,101576.66
2018-06-03T10:51:25.456Z,101569.20
2018-06-03T10:53:51.207Z,101570.95
2018-06-03T10:56:16.968Z,101566.45
2018-06-03T10:58:42.719Z,101564.54
2018-06-03T11:01:08.489Z,101567.08
2018-06-03T11:03:34.327Z,101567.00
2018-06-03T11:06:00.096Z,101566.49
2018-06-03T11:08:25.911Z,101561.48
2018-06-03T11:10:51.675Z,101559.13
2018-06-03T11:13:17.979Z,101556.50
2018-06-03T11:15:44.061Z,101558.80
2018-06-03T11:18:09.821Z,101553.63
2018-06-03T11:20:35.559Z,101552.41
2018-06-03T11:23:01.305Z,101554.80
2018-06-03T11:25:27.080Z,101553.97
2018-06-03T11:27:52.887Z,101547.73
2018-06-03T11:30:18.647Z,101556.36
2018-06-03T11:32:44.396Z,101549.86
2018-06-03T11:35:10.147Z,101557.86
2018-06-03T11:37:35.900Z,101559.18
2018-06-03T11:40:01.668Z,101559.48
2018-06-03T11:42:27.449Z,101555.75
2018-06-03T11:44:53.219Z,101549.34
2018-06-03T11:47:18.987Z,101557.08
2018-06-03T11:49:44.735Z,101550.67
2018-06-03T11:52:10.655Z,101552.19
2018-06-03T11:54:36.416Z,101547.18
2018-06-03T11:57:02.188Z,101547.19
2018-06-03T11:59:37.812Z,101544.30
2018-06-03T12:02:03.576Z,101544.61
2018-06-03T12:04:29.358Z,101549.38
2018-06-03T12:06:55.221Z,101550.73
2018-06-03T12:09:21.007Z,101543.52
2018-06-03T12:11:46.759Z,101543.72
2018-06-03T12:14:12.559Z,101545.43
2018-06-03T12:16:38.323Z,101549.19
2018-06-03T12:19:04.070Z,101547.30
2018-06-03T12:21:29.815Z,101543.44
2018-06-03T12:23:55.572Z,101538.41
2018-06-03T12:26:21.358Z,101540.14
2018-06-03T12:28:47.115Z,101544.63
2018-06-03T12:31:12.967Z,101545.59
2018-06-03T12:33:38.844Z,101542.48
2018-06-03T12:36:04.617Z,101544.84
2018-06-03T12:38:30.371Z,101534.91
2018-06-03T12:40:56.137Z,101534.75
2018-06-03T12:43:21.875Z,101540.44
2018-06-03T12:45:47.619Z,101536.64
2018-06-03T12:48:44.872Z,101533.64
2018-06-03T12:51:11.991Z,101525.48
2018-06-03T12:53:38.903Z,101539.29
2018-06-03T12:56:05.834Z,101528.55
2018-06-03T12:58:32.920Z,101525.86
2018-06-03T13:00:59.845Z,101529.34
2018-06-03T13:03:26.789Z,101525.56
2018-06-03T13:05:53.708Z,101524.87
2018-06-03T13:08:20.627Z,101531.66
2018-06-03T13:10:47.583Z,101530.82
2018-06-03T13:13:14.539Z,101527.70
2018-06-03T13:15:41.455Z,101525.89
2018-06-03T13:18:09.535Z,101527.27
2018-06-03T13:20:36.420Z,101526.05
2018-06-03T13:23:03.617Z,101523.46
2018-06-03T13:25:30.560Z,101527.08
2018-06-03T13:27:57.513Z,101525.86
2018-06-03T13:30:24.435Z,101526.36
2018-06-03T13:32:51.398Z,101521.11
2018-06-03T13:35:18.445Z,101520.22
2018-06-03T13:37:45.393Z,101509.55
2018-06-03T13:40:12.327Z,101509.39
2018-06-03T13:42:39.239Z,101504.43
2018-06-03T13:45:06.188Z,101502.50
2018-06-03T13:47:33.172Z,101499.32
2018-06-03T13:50:00.175Z,101502.83
2018-06-03T13:52:27.097Z,101501.00
2018-06-03T13:54:54.102Z,101498.77
2018-06-03T13:57:21.140Z,101490.53
2018-06-03T13:59:48.152Z,101498.67
2018-06-03T14:02:15.085Z,101494.43
2018-06-03T14:04:41.995Z,101494.53
2018-06-03T14:07:08.930Z,101496.56
2018-06-03T14:09:35.876Z,101495.48
2018-06-03T14:12:02.825Z,101490.73
2018-06-03T14:14:29.723Z,101490.70
2018-06-03T14:16:56.923Z,101484.25
2018-06-03T14:19:23.922Z,101479.91
2018-06-03T14:21:50.858Z,101475.77
2018-06-03T14:24:17.803Z,101475.69
2018-06-03T14:26:44.824Z,101471.05
2018-06-03T14:29:11.823Z,101474.02
2018-06-03T14:31:38.729Z,101468.77
2018-06-03T14:34:05.707Z,101465.68
2018-06-03T14:36:32.674Z,101463.61
2018-06-03T14:38:59.668Z,101463.72
2018-06-03T14:41:26.626Z,101458.16
2018-06-03T14:43:53.632Z,101462.67
2018-06-03T14:46:20.582Z,101458.55
2018-06-03T14:48:47.630Z,101449.27
2018-06-03T14:51:14.594Z,101452.55
2018-06-03T14:53:41.701Z,101444.95
2018-06-03T14:56:08.675Z,101447.75
2018-06-03T14:58:35.555Z,101439.09
2018-06-03T15:01:02.492Z,101439.68
2018-06-03T15:03:29.447Z,101436.56
2018-06-03T15:05:56.356Z,101425.02
2018-06-03T15:08:23.287Z,101415.06
2018-06-03T15:10:50.211Z,101420.02
2018-06-03T15:13:17.121Z,101415.73
2018-06-03T15:15:44.043Z,101415.75
2018-06-03T15:18:10.971Z,101413.94
2018-06-03T15:20:37.928Z,101412.83
2018-06-03T15:23:04.887Z,101416.47
2018-06-03T15:25:31.828Z,101417.27
2018-06-03T15:27:58.927Z,101417.61
2018-06-03T15:30:25.868Z,101419.36
2018-06-03T15:32:52.845Z,101422.05
2018-06-03T15:35:19.812Z,101415.15
2018-06-03T15:37:46.759Z,101416.48
2018-06-03T15:40:13.739Z,101414.02
2018-06-03T15:42:40.652Z,101403.20
2018-06-03T15:45:07.695Z,101398.23
2018-06-03T15:47:34.608Z,101394.03
2018-06-03T15:50:01.560Z,101392.78
2018-06-03T15:52:28.484Z,101393.52
2018-06-03T15:54:55.511Z,101385.69
2018-06-03T15:57:22.663Z,101386.78
2018-06-03T15:59:49.592Z,101387.95
2018-06-03T16:02:16.512Z,101388.06
2018-06-03T16:04:43.488Z,101385.33
2018-06-03T16:07:10.411Z,101392.25
2018-06-03T16:09:37.548Z,101392.59
2018-06-03T16:12:04.459Z,101388.73
2018-06-03T16:14:32.500Z,101391.84
2018-06-03T16:16:59.397Z,101385.87
2018-06-03T16:19:26.347Z,101383.16
2018-06-03T16:21:53.356Z,101383.85
2018-06-03T16:24:20.388Z,101384.23
2018-06-03T16:26:47.251Z,101383.67
2018-06-03T16:29:14.183Z,101385.56
2018-06-03T16:31:41.160Z,101382.39
2018-06-03T16:34:08.059Z,101382.09
2018-06-03T16:36:35.164Z,101384.38
2018-06-03T16:39:02.168Z,101383.03
2018-06-03T16:41:29.192Z,101385.09
2018-06-03T16:43:56.115Z,101380.65
2018-06-03T16:46:23.039Z,101381.77
2018-06-03T16:48:49.991Z,101377.20
2018-06-03T16:51:16.920Z,101388.31
2018-06-03T16:53:43.891Z,101384.53
2018-06-03T16:56:10.815Z,101384.23
2018-06-03T16:58:37.753Z,101381.97
2018-06-03T17:01:04.700Z,101376.48
2018-06-03T17:03:31.948Z,101370.55
2018-06-03T17:05:59.892Z,101373.23
2018-06-03T17:08:26.839Z,101364.19
2018-06-03T17:10:53.835Z,101366.65
2018-06-03T17:13:20.894Z,101362.19
2018-06-03T17:15:47.892Z,101357.06
2018-06-03T17:18:14.839Z,101354.09
2018-06-03T17:20:41.840Z,101359.16
2018-06-03T17:23:08.796Z,101352.16
2018-06-03T17:25:35.800Z,101345.14
2018-06-03T17:28:02.863Z,101348.76
2018-06-03T17:30:29.909Z,101341.66
2018-06-03T17:32:56.820Z,101342.98
2018-06-03T17:35:23.772Z,101332.70
2018-06-03T17:37:50.730Z,101334.77
2018-06-03T17:40:17.739Z,101335.16
2018-06-03T17:42:44.641Z,101334.56
2018-06-03T17:45:11.571Z,101329.45
2018-06-03T17:47:38.486Z,101335.78
2018-06-03T17:50:05.664Z,101320.22
2018-06-03T17:52:32.607Z,101327.04
2018-06-03T17:54:59.639Z,101321.37
2018-06-03T17:57:26.608Z,101315.12
2018-06-03T17:59:53.533Z,101317.67
2018-06-03T18:02:20.520Z,101318.67
2018-06-03T18:04:47.440Z,101318.39
2018-06-03T18:07:14.388Z,101316.64
2018-06-03T18:09:41.312Z,101313.74
2018-06-03T18:12:08.306Z,101304.06
2018-06-03T18:14:35.247Z,101308.90
2018-06-03T18:17:02.227Z,101309.42
2018-06-03T18:19:29.159Z,101306.23
2018-06-03T18:21:56.136Z,101303.23
2018-06-03T18:24:23.085Z,101302.42
2018-06-03T18:26:50.059Z,101310.34
2018-06-03T18:29:16.971Z,101304.77
2018-06-03T18:31:44.144Z,101299.75
2018-06-03T18:34:11.075Z,101314.45
2018-06-03T18:36:37.983Z,101308.45
2018-06-03T18:39:06.771Z,101302.25
2018-06-03T18:41:33.730Z,101304.53
2018-06-03T18:44:00.653Z,101308.70
2018-06-03T18:46:27.651Z,101299.32
2018-06-03T18:48:54.545Z,101308.05
2018-06-03T18:51:21.515Z,101306.90
2018-06-03T18:53:48.434Z,101299.48
2018-06-03T18:56:15.371Z,101296.39
2018-06-03T18:58:42.328Z,101288.94
2018-06-03T19:01:09.259Z,101293.92
2018-06-03T19:03:36.187Z,101300.78
2018-06-03T19:06:03.127Z,101299.59
2018-06-03T19:08:30.059Z,101303.44
2018-06-03T19:10:57.016Z,101299.87
2018-06-03T19:13:23.935Z,101302.02
2018-06-03T19:15:50.865Z,101300.42
2018-06-03T19:18:17.871Z,101301.59
2018-06-03T19:20:44.832Z,101304.39
2018-06-03T19:23:11.768Z,101297.54
2018-06-03T19:25:38.716Z,101300.66
2018-06-03T19:28:05.667Z,101292.14
2018-06-03T19:30:32.592Z,101293.92
2018-06-03T19:32:59.507Z,101292.84
2018-06-03T19:35:26.472Z,101298.61
2018-06-03T19:37:53.403Z,101298.69
2018-06-03T19:40:20.348Z,101300.95
2018-06-03T19:42:47.265Z,101301.69
2018-06-03T19:45:14.340Z,101294.77
2018-06-03T19:47:41.271Z,101300.22
2018-06-03T19:50:08.226Z,101298.28
2018-06-03T19:52:35.343Z,101300.18
2018-06-03T19:55:02.275Z,101304.11
2018-06-03T19:57:29.208Z,101298.87
2018-06-03T19:59:56.155Z,101304.61
2018-06-03T20:02:23.056Z,101294.19
2018-06-03T20:04:50.119Z,101297.43
2018-06-03T20:07:17.051Z,101296.48
2018-06-03T20:09:43.977Z,101294.87
2018-06-03T20:12:11.011Z,101293.76
2018-06-03T20:14:37.885Z,101287.66
2018-06-03T20:17:04.811Z,101293.20
2018-06-03T20:19:31.987Z,101287.42
2018-06-03T20:21:58.963Z,101288.47
2018-06-03T20:24:25.928Z,101281.03
2018-06-03T20:26:52.843Z,101295.69
2018-06-03T20:29:19.803Z,101288.09
2018-06-03T20:31:46.786Z,101287.47
2018-06-03T20:34:13.707Z,101288.84
2018-06-03T20:36:40.913Z,101290.87
2018-06-03T20:39:07.918Z,101294.73
2018-06-03T20:41:34.838Z,101291.44
2018-06-03T20:44:02.112Z,101291.98
2018-06-03T20:46:29.039Z,101291.69
2018-06-03T20:48:56.000Z,101290.89
2018-06-03T20:51:22.958Z,101294.20
2018-06-03T20:53:49.976Z,101306.22
2018-06-03T20:56:16.903Z,101300.59
2018-06-03T20:58:43.976Z,101300.11
2018-06-03T21:01:10.944Z,101300.95
2018-06-03T21:03:37.835Z,101296.02
2018-06-03T21:06:04.759Z,101300.34
2018-06-03T21:08:31.695Z,101306.50
2018-06-03T21:10:58.723Z,101308.70
2018-06-03T21:13:25.814Z,101307.38
2018-06-03T21:15:52.718Z,101304.41
2018-06-03T21:18:19.643Z,101302.94
2018-06-03T21:20:46.599Z,101303.46
2018-06-03T21:23:13.799Z,101298.98
2018-06-03T21:25:40.729Z,101300.69
2018-06-03T21:28:08.516Z,101300.19
2018-06-03T21:30:35.485Z,101306.86
2018-06-03T21:33:02.591Z,101310.20
2018-06-03T21:35:29.516Z,101306.22
2018-06-03T21:37:56.459Z,101314.52
2018-06-03T21:40:23.469Z,101305.91
2018-06-03T21:42:50.799Z,101306.24
2018-06-03T21:45:17.708Z,101306.09
2018-06-03T21:47:44.659Z,101305.93
2018-06-03T21:50:11.626Z,101313.73
2018-06-03T21:52:38.762Z,101305.61
2018-06-03T21:55:05.726Z,101310.25
2018-06-03T21:57:32.648Z,101304.28
2018-06-03T21:59:59.551Z,101304.31
2018-06-03T22:02:26.884Z,101301.99
2018-06-03T22:04:53.820Z,101302.34
2018-06-03T22:07:20.757Z,101311.64
2018-06-03T22:09:47.690Z,101310.98
2018-06-03T22:12:14.607Z,101304.69
2018-06-03T22:14:41.524Z,101305.36
2018-06-03T22:17:08.456Z,101305.70
2018-06-03T22:19:35.867Z,101300.72
2018-06-03T22:22:02.840Z,101303.70
2018-06-03T22:24:29.743Z,101300.89
2018-06-03T22:26:56.650Z,101296.44
2018-06-03T22:29:23.547Z,101298.25
2018-06-03T22:31:50.472Z,101297.59
2018-06-03T22:34:17.395Z,101303.75
2018-06-03T22:36:44.420Z,101300.41
2018-06-03T22:39:11.380Z,101299.59
2018-06-03T22:41:38.311Z,101308.39
2018-06-03T22:44:05.282Z,101302.58
2018-06-03T22:46:32.335Z,101307.75
2018-06-03T22:48:59.372Z,101311.05
2018-06-03T22:51:26.452Z,101309.73
2018-06-03T22:53:53.402Z,101311.73
2018-06-03T22:56:20.415Z,101309.75
2018-06-03T22:58:47.434Z,101304.43
2018-06-03T23:01:15.460Z,101305.09
2018-06-03T23:03:42.384Z,101308.42
2018-06-03T23:06:09.452Z,101311.74
2018-06-03T23:08:36.443Z,101313.22
2018-06-03T23:11:03.555Z,101307.75
2018-06-03T23:13:30.511Z,101309.39
2018-06-03T23:15:57.464Z,101304.23
2018-06-03T23:18:24.444Z,101305.58
2018-06-03T23:20:51.459Z,101298.78
2018-06-03T23:25:57.975Z,101298.77
2018-06-03T23:28:25.096Z,101296.44
2018-06-03T23:30:52.159Z,101297.45
2018-06-03T23:33:19.089Z,101294.14
2018-06-03T23:35:46.011Z,101292.16
2018-06-03T23:38:13.047Z,101292.97
2018-06-03T23:40:39.999Z,101290.98
2018-06-03T23:43:07.030Z,101295.94
2018-06-03T23:45:33.949Z,101285.52
2018-06-03T23:48:01.012Z,101280.87
2018-06-03T23:50:27.930Z,101285.48
2018-06-03T23:52:54.915Z,101283.85
2018-06-03T23:55:21.879Z,101273.08
2018-06-03T23:57:48.775Z,101276.89
